Al-wafra, Kuwait

1:27 AM AST on December 05, 2016 (GMT +0300)
Khairan | | Change Station

Elev -10 ft 28.67 °N, 48.38 °E | Updated 3 seconds ago

Clear
Clear
59.2 °F
Feels Like 59.2 °F
N
13.0
Wind Variable Wind from NNE
Gusts 14.0 mph

Today
High -- | Low -- °F
--% Chance of Precip.
Yesterday
High -- | Low -- °F
Precip. -- in
Pressure 30.18 in
Visibility 4.3 miles
Clouds Clear
Dew Point 49 °F
Humidity 69%
Rainfall 0.00 in
Snow Depth Not available.
6:26 AM 4:50 PM
Waxing Crescent, 26% visible
METAR OKBK 042200Z 31006KT 7000 SKC 14/09 Q1022 NOSIG
Pressure 30.18 in
Visibility 4.3 miles
Clouds Clear
Dew Point 49 °F
Humidity 69%
Rainfall 0.00 in
Snow Depth Not available.
6:26 AM 4:50 PM
Waxing Crescent, 26% visible
METAR OKBK 042200Z 31006KT 7000 SKC 14/09 Q1022 NOSIG

10-Day Weather Forecast

No radar image for this location.
×

Almanac

Astronomy

Dec. 05, 2016 Rise Set
Actual Time
Civil Twilight
Nautical Twilight
Astronomical Twilight
Moon
Length of Visible Light
Length of Day
Tomorrow will be .
, % of the Moon is Illuminated

Today's Extremes

Country Highs Country Lows

Community

WunderPhotos

Upload Photos

1,955,684 photos uploaded!

WunderBlog® & News

Nearby

Air Quality

  Air Quality AQ Index Pollutant
Not available.

Snow Depth

Station Depth Elevation

Earthquake Activity

City Distance Mag. Time & Date
Minimum magnitude displayed is 2.5.

Coastal Water Temperatures

Place Temperature

Stations

Nearby Weather Stations

Station Location Temp. Windchill Dew Point Humidity Wind Precip. Elev Updated Type